Time;durP1;ratioP1;P1;durP2;ratioP2;P2;SDS_P1;SDS_P2;PMS_P1;PMS_P2;Temp;Humidity;BMP_temperature;BMP_pressure;BME280_temperature;BME280_humidity;BME280_pressure;Samples;Min_cycle;Max_cycle;Signal;HPM_P1;HPM_P2
2023/04/18 00:00:13;;;;;;;9.40;5.43;;;;;;;7.96;79.98;102519.41;5055097;28;20116;-86
2023/04/18 00:02:38;;;;;;;14.43;7.00;;;;;;;7.91;80.86;102518.41;5059513;28;20488;-86
2023/04/18 00:05:06;;;;;;;14.17;6.90;;;;;;;7.90;80.21;102522.72;5074955;28;20029;-87
2023/04/18 00:07:31;;;;;;;13.65;6.53;;;;;;;7.89;79.87;102523.56;5074700;28;20392;-86
2023/04/18 00:09:57;;;;;;;11.73;5.70;;;;;;;7.84;81.17;102518.28;5074268;28;20037;-86
2023/04/18 00:12:22;;;;;;;13.97;6.70;;;;;;;7.85;80.51;102520.03;5074566;28;20020;-86
2023/04/18 00:14:49;;;;;;;13.25;6.38;;;;;;;7.83;81.28;102520.81;5056594;28;20522;-86
2023/04/18 00:17:14;;;;;;;10.57;5.38;;;;;;;7.81;80.40;102528.53;5073944;28;20013;-86
2023/04/18 00:19:40;;;;;;;13.10;6.60;;;;;;;7.76;80.67;102516.34;5074480;28;20028;-86
2023/04/18 00:22:06;;;;;;;11.30;5.87;;;;;;;7.76;80.46;102517.25;5074643;28;20107;-86
2023/04/18 00:24:31;;;;;;;9.30;5.10;;;;;;;7.73;79.97;102517.16;5073553;28;20049;-86
2023/04/18 00:26:57;;;;;;;13.43;6.13;;;;;;;7.73;81.35;102517.16;5074705;28;20325;-86
2023/04/18 00:29:22;;;;;;;12.10;5.70;;;;;;;7.70;81.06;102519.66;5073712;28;20052;-86
2023/04/18 00:31:47;;;;;;;14.50;6.83;;;;;;;7.66;82.37;102516.16;5074183;28;20035;-86
2023/04/18 00:34:13;;;;;;;20.03;9.77;;;;;;;7.60;82.00;102512.53;5074428;28;20033;-87
2023/04/18 00:36:38;;;;;;;19.70;9.27;;;;;;;7.62;81.67;102516.03;5073074;28;20527;-86
2023/04/18 00:39:03;;;;;;;20.93;11.40;;;;;;;7.62;79.53;102518.63;5073997;28;20017;-86
2023/04/18 00:41:29;;;;;;;21.90;11.07;;;;;;;7.64;78.79;102516.94;5073516;28;20380;-86
2023/04/18 00:43:54;;;;;;;22.13;11.27;;;;;;;7.71;76.62;102514.53;5073232;28;20369;-86
2023/04/18 00:46:19;;;;;;;20.30;11.23;;;;;;;7.76;76.67;102516.34;5073674;28;20012;-85
2023/04/18 00:48:46;;;;;;;19.88;10.90;;;;;;;7.73;75.21;102519.75;5074533;28;20032;-86
2023/04/18 00:51:11;;;;;;;20.73;11.65;;;;;;;7.75;75.01;102517.19;5073185;28;20388;-86
2023/04/18 00:53:36;;;;;;;19.43;10.30;;;;;;;7.73;75.17;102512.84;5073805;28;20021;-86
2023/04/18 00:56:03;;;;;;;19.40;10.40;;;;;;;7.64;74.18;102509.19;5073870;28;20024;-86
2023/04/18 00:58:28;;;;;;;21.25;10.90;;;;;;;7.62;74.18;102511.72;5073108;28;20028;-86
2023/04/18 01:00:54;;;;;;;20.92;11.20;;;;;;;7.60;72.40;102508.22;5073722;28;20043;-85
2023/04/18 01:03:21;;;;;;;21.60;11.00;;;;;;;7.58;72.31;102512.50;5073439;28;20024;-85
2023/04/18 01:05:47;;;;;;;21.00;11.10;;;;;;;7.61;72.13;102509.13;5071502;28;20025;-86
2023/04/18 01:08:13;;;;;;;20.87;11.03;;;;;;;7.56;71.91;102501.25;5053041;28;20086;-86
2023/04/18 01:10:38;;;;;;;18.97;10.33;;;;;;;7.53;71.86;102511.50;5053469;28;20550;-86
2023/04/18 01:13:17;;;;;;;20.03;10.70;;;;;;;7.53;71.98;102512.41;5052366;28;20567;-86
2023/04/18 01:15:50;;;;;;;20.13;10.32;;;;;;;7.53;71.92;102514.09;5053155;28;20103;-86
2023/04/18 01:18:16;;;;;;;18.02;9.63;;;;;;;7.49;72.55;102512.25;5053504;28;20518;-86
2023/04/18 01:20:47;;;;;;;18.98;10.02;;;;;;;7.40;72.56;102507.75;5052620;28;20035;-86
2023/04/18 01:23:17;;;;;;;18.83;9.93;;;;;;;7.36;72.35;102512.00;5053141;28;20069;-87
2023/04/18 01:25:43;;;;;;;18.38;9.60;;;;;;;7.35;72.54;102517.09;5052371;28;20457;-86
2023/04/18 01:28:09;;;;;;;17.40;9.30;;;;;;;7.33;73.19;102511.91;5053171;28;20040;-86
2023/04/18 01:30:34;;;;;;;17.13;8.20;;;;;;;7.32;73.65;102506.72;5052901;28;20493;-86
2023/04/18 01:33:01;;;;;;;18.73;9.30;;;;;;;7.20;74.51;102502.97;5060781;28;20032;-86
2023/04/18 01:35:27;;;;;;;19.92;10.32;;;;;;;7.14;75.18;102491.63;5073023;28;20111;-86
2023/04/18 01:37:52;;;;;;;17.25;9.10;;;;;;;7.14;75.95;102499.38;5073175;28;20060;-86
2023/04/18 01:40:18;;;;;;;19.65;10.88;;;;;;;7.06;75.82;102502.59;5072234;28;20029;-86
2023/04/18 01:42:43;;;;;;;21.97;11.43;;;;;;;6.99;75.69;102490.38;5072627;28;20027;-86
2023/04/18 01:45:10;;;;;;;20.27;11.57;;;;;;;6.88;75.48;102484.91;5073394;28;20036;-86
2023/04/18 01:47:35;;;;;;;20.33;10.93;;;;;;;6.93;75.64;102488.50;5072216;28;20039;-86
2023/04/18 01:50:02;;;;;;;20.07;11.20;;;;;;;6.84;75.62;102493.44;5073144;28;20020;-86
2023/04/18 01:52:27;;;;;;;21.05;11.20;;;;;;;6.80;75.58;102486.44;5072782;28;20094;-86
2023/04/18 01:54:52;;;;;;;19.83;11.27;;;;;;;6.74;75.62;102486.28;5072403;28;20453;-86
2023/04/18 01:57:17;;;;;;;19.83;10.40;;;;;;;6.72;75.62;102477.63;5072627;28;20028;-87
2023/04/18 01:59:43;;;;;;;19.52;10.57;;;;;;;6.69;75.55;102477.53;5072596;28;20116;-86
2023/04/18 02:02:09;;;;;;;19.70;10.23;;;;;;;6.69;75.91;102481.00;5066705;28;20051;-86
2023/04/18 02:04:35;;;;;;;18.92;9.55;;;;;;;6.68;75.39;102487.00;5052643;28;20396;-86
2023/04/18 02:07:00;;;;;;;20.17;11.00;;;;;;;6.58;75.50;102487.56;5052734;28;20029;-86
2023/04/18 02:09:26;;;;;;;20.52;11.07;;;;;;;6.55;75.65;102477.16;5051765;28;20102;-86
2023/04/18 02:11:51;;;;;;;19.75;10.38;;;;;;;6.57;75.80;102485.81;5052937;28;20025;-86
2023/04/18 02:14:16;;;;;;;19.87;10.77;;;;;;;6.53;76.12;102483.97;5052847;28;20036;-86
2023/04/18 02:16:41;;;;;;;20.85;11.35;;;;;;;6.43;75.84;102481.16;5051058;28;20052;-85
2023/04/18 02:19:07;;;;;;;21.27;10.90;;;;;;;6.43;75.90;102483.72;5052473;28;20116;-86
2023/04/18 02:21:32;;;;;;;21.48;11.07;;;;;;;6.40;75.89;102486.22;5052342;28;20056;-86
2023/04/18 02:23:58;;;;;;;18.70;9.53;;;;;;;6.34;75.97;102481.75;5051358;28;20052;-86
2023/04/18 02:26:23;;;;;;;19.47;10.50;;;;;;;6.33;76.72;102473.97;5051970;28;20466;-86
2023/04/18 02:28:48;;;;;;;18.15;9.20;;;;;;;6.27;76.47;102468.63;5052243;28;20036;-86
2023/04/18 02:31:14;;;;;;;19.90;10.60;;;;;;;6.24;76.91;102476.31;5051502;28;20082;-86
2023/04/18 02:33:41;;;;;;;19.23;10.65;;;;;;;6.21;76.70;102469.31;5067777;28;20429;-85
2023/04/18 02:36:07;;;;;;;19.48;10.23;;;;;;;6.18;77.15;102477.84;5071650;28;20028;-86
2023/04/18 02:38:32;;;;;;;19.00;9.63;;;;;;;6.16;77.02;102470.91;5072220;28;20024;-86
2023/04/18 02:41:00;;;;;;;17.60;9.00;;;;;;;6.13;77.75;102469.13;5072012;28;20074;-86
2023/04/18 02:43:26;;;;;;;18.80;9.52;;;;;;;6.06;77.29;102476.63;5071159;28;20029;-86
2023/04/18 02:45:51;;;;;;;18.80;10.23;;;;;;;6.00;77.24;102467.88;5072904;28;20017;-85
2023/04/18 02:48:16;;;;;;;20.43;10.97;;;;;;;5.97;77.27;102474.59;5072622;28;20033;-86
2023/04/18 02:50:41;;;;;;;18.97;10.40;;;;;;;5.93;77.76;102478.81;5071629;28;20021;-86
2023/04/18 02:53:07;;;;;;;21.83;11.00;;;;;;;5.87;77.45;102464.03;5071988;28;20391;-86
2023/04/18 02:55:32;;;;;;;20.20;11.18;;;;;;;5.87;77.47;102466.59;5071451;28;20023;-85
2023/04/18 02:57:57;;;;;;;20.33;11.03;;;;;;;5.83;77.25;102469.91;5070383;28;20016;-86
2023/04/18 03:00:23;;;;;;;18.90;9.57;;;;;;;5.84;77.70;102475.94;5072285;28;20013;-87
2023/04/18 03:02:48;;;;;;;19.40;10.00;;;;;;;5.79;77.63;102480.06;5071657;28;20537;-86
2023/04/18 03:05:14;;;;;;;19.00;10.03;;;;;;;5.77;77.84;102476.56;5071369;28;20036;-86
2023/04/18 03:07:42;;;;;;;17.65;9.40;;;;;;;5.74;77.77;102479.06;5071865;28;20457;-85
2023/04/18 03:10:07;;;;;;;16.52;8.68;;;;;;;5.69;78.08;102468.59;5071965;28;20055;-86
2023/04/18 03:12:33;;;;;;;20.37;10.63;;;;;;;5.63;77.84;102479.59;5071291;28;20028;-86
2023/04/18 03:14:58;;;;;;;18.80;10.10;;;;;;;5.61;77.96;102483.84;5071857;28;20023;-86
2023/04/18 03:17:23;;;;;;;20.58;10.82;;;;;;;5.55;78.04;102483.63;5071773;28;20104;-86
2023/04/18 03:19:49;;;;;;;17.50;9.55;;;;;;;5.55;77.81;102486.19;5053304;28;20346;-86
2023/04/18 03:22:15;;;;;;;17.90;9.45;;;;;;;5.53;78.17;102485.28;5051763;28;20024;-85
2023/04/18 03:24:40;;;;;;;19.70;10.00;;;;;;;5.45;78.01;102481.59;5051568;28;20025;-86
2023/04/18 03:27:05;;;;;;;20.92;11.20;;;;;;;5.45;77.67;102479.00;5051410;28;20378;-86
2023/04/18 03:29:31;;;;;;;17.80;9.55;;;;;;;5.42;78.28;102479.78;5051118;28;20031;-86
2023/04/18 03:31:59;;;;;;;19.05;9.63;;;;;;;5.39;77.70;102480.56;5055805;28;20029;-85
2023/04/18 03:34:24;;;;;;;19.25;10.52;;;;;;;5.36;77.97;102484.72;5053393;28;20043;-86
2023/04/18 03:36:49;;;;;;;18.67;10.50;;;;;;;5.31;78.14;102481.13;5055335;28;20107;-85
2023/04/18 03:39:20;;;;;;;20.30;10.57;;;;;;;5.24;78.10;102480.06;5055166;28;20029;-86
2023/04/18 03:41:46;;;;;;;19.95;10.85;;;;;;;5.24;78.58;102475.78;5055130;28;20031;-85
2023/04/18 03:44:11;;;;;;;18.93;10.20;;;;;;;5.22;78.64;102474.88;5055010;28;20075;-86
2023/04/18 03:46:39;;;;;;;20.53;10.60;;;;;;;5.23;78.83;102473.16;5053914;28;20834;-86
2023/04/18 03:49:05;;;;;;;20.52;11.60;;;;;;;5.07;78.97;102477.78;5055359;28;20115;-86
2023/04/18 03:51:33;;;;;;;20.20;11.20;;;;;;;5.09;78.97;102478.72;5054958;28;20174;-85
2023/04/18 03:53:58;;;;;;;20.02;11.05;;;;;;;5.03;79.25;102480.19;5054353;28;20590;-86
2023/04/18 03:56:23;;;;;;;19.77;11.07;;;;;;;5.04;79.79;102485.41;5055037;28;20112;-86
2023/04/18 03:58:48;;;;;;;18.60;10.10;;;;;;;5.04;79.50;102487.09;5055269;28;20051;-86
2023/04/18 04:01:16;;;;;;;19.73;11.63;;;;;;;4.92;79.46;102487.56;5054524;28;20048;-86
2023/04/18 04:03:42;;;;;;;20.02;11.20;;;;;;;4.98;79.96;102492.06;5070530;28;20039;-86
2023/04/18 04:06:07;;;;;;;18.13;9.70;;;;;;;4.97;79.12;102485.16;5074935;28;20025;-86
2023/04/18 04:08:33;;;;;;;18.88;9.60;;;;;;;4.93;79.48;102494.47;5073993;28;20028;-86
2023/04/18 04:10:58;;;;;;;19.55;10.52;;;;;;;4.92;79.84;102487.56;5075068;28;20025;-86
2023/04/18 04:13:23;;;;;;;19.53;10.17;;;;;;;4.87;79.66;102484.84;5074596;28;20038;-86
2023/04/18 04:15:49;;;;;;;19.57;10.93;;;;;;;4.84;79.94;102483.88;5074375;28;20025;-86
2023/04/18 04:18:14;;;;;;;20.95;10.85;;;;;;;4.81;79.91;102483.75;5074812;28;20496;-86
2023/04/18 04:20:39;;;;;;;19.57;10.23;;;;;;;4.82;80.15;102486.38;5074289;28;20029;-86
2023/04/18 04:23:05;;;;;;;20.33;11.02;;;;;;;4.79;79.81;102489.72;5072836;28;20063;-86
2023/04/18 04:25:32;;;;;;;20.10;10.63;;;;;;;4.75;80.39;102486.97;5074605;28;20039;-86
2023/04/18 04:28:00;;;;;;;19.33;10.68;;;;;;;4.76;80.58;102492.16;5074575;28;20055;-86
2023/04/18 04:30:25;;;;;;;18.73;9.40;;;;;;;4.74;80.63;102483.50;5073814;28;20413;-86
2023/04/18 04:32:50;;;;;;;17.40;8.83;;;;;;;4.74;81.00;102483.50;5074146;28;20071;-86
2023/04/18 04:35:16;;;;;;;18.58;8.90;;;;;;;4.69;80.65;102479.94;5074415;28;20484;-86
2023/04/18 04:37:42;;;;;;;18.30;9.23;;;;;;;4.74;81.02;102492.94;5073237;28;20143;-86
2023/04/18 04:40:11;;;;;;;17.42;8.82;;;;;;;4.72;80.74;102492.91;5074341;28;20122;-86
2023/04/18 04:42:39;;;;;;;16.95;8.43;;;;;;;4.72;80.58;102495.47;5072153;28;20036;-85
2023/04/18 04:45:07;;;;;;;14.85;7.60;;;;;;;4.68;80.28;102491.03;5074283;28;20029;-86
2023/04/18 04:47:32;;;;;;;13.20;6.53;;;;;;;4.74;79.99;102498.09;5073896;28;20491;-86
2023/04/18 04:49:57;;;;;;;15.53;8.13;;;;;;;4.71;80.50;102493.72;5073220;28;20083;-86
2023/04/18 04:52:23;;;;;;;16.02;7.85;;;;;;;4.73;80.15;102502.34;5067902;28;20025;-86
2023/04/18 04:54:50;;;;;;;14.63;7.18;;;;;;;4.71;80.50;102498.88;5053914;28;20033;-86
2023/04/18 04:57:15;;;;;;;16.35;8.07;;;;;;;4.66;80.77;102497.81;5053321;28;20040;-86
2023/04/18 04:59:41;;;;;;;16.93;7.83;;;;;;;4.66;80.54;102502.09;5053348;28;20020;-86
2023/04/18 05:02:06;;;;;;;15.15;7.55;;;;;;;4.64;80.27;102504.59;5053762;28;20078;-86
2023/04/18 05:04:31;;;;;;;14.35;6.72;;;;;;;4.62;80.06;102498.50;5052426;28;20385;-85
2023/04/18 05:06:56;;;;;;;16.50;8.43;;;;;;;4.60;80.34;102498.47;5053664;28;20078;-86
2023/04/18 05:09:22;;;;;;;17.20;9.07;;;;;;;4.60;80.09;102495.03;5054325;28;20386;-85
2023/04/18 05:11:48;;;;;;;16.30;7.57;;;;;;;4.62;80.13;102494.25;5070762;28;20040;-86
2023/04/18 05:14:13;;;;;;;17.33;9.00;;;;;;;4.65;80.87;102506.34;5073595;28;20027;-86
2023/04/18 05:16:38;;;;;;;19.17;9.88;;;;;;;4.56;80.58;102493.16;5073106;28;20028;-86
2023/04/18 05:19:04;;;;;;;17.17;8.90;;;;;;;4.61;80.37;102502.78;5072766;28;20108;-85
2023/04/18 05:21:35;;;;;;;17.23;8.27;;;;;;;4.67;80.36;102502.13;5072990;28;20098;-86
2023/04/18 05:24:01;;;;;;;15.98;7.38;;;;;;;4.68;80.49;102510.72;5054892;28;20049;-86
2023/04/18 05:26:26;;;;;;;17.70;8.57;;;;;;;4.67;80.45;102509.84;5052341;28;20032;-86
2023/04/18 05:28:51;;;;;;;18.85;9.25;;;;;;;4.71;80.50;102514.28;5053458;28;20439;-87
2023/04/18 05:31:16;;;;;;;19.30;10.35;;;;;;;4.65;80.17;102503.78;5053307;28;20035;-86
2023/04/18 05:33:42;;;;;;;16.27;8.52;;;;;;;4.68;80.67;102511.59;5052092;28;20059;-85
2023/04/18 05:36:07;;;;;;;19.97;10.97;;;;;;;4.68;80.33;102516.75;5053383;28;20108;-86
2023/04/18 05:38:32;;;;;;;21.23;10.80;;;;;;;4.68;80.05;102516.75;5052735;28;20101;-87
2023/04/18 05:40:59;;;;;;;19.85;11.20;;;;;;;4.72;80.13;102526.34;5052478;28;20120;-87
2023/04/18 05:43:27;;;;;;;19.95;10.70;;;;;;;4.79;80.44;102525.72;5052807;28;20021;-87
2023/04/18 05:45:52;;;;;;;20.67;10.95;;;;;;;4.85;80.11;102526.75;5052930;28;20476;-86
2023/04/18 05:48:18;;;;;;;19.70;10.60;;;;;;;4.86;80.30;102523.34;5052937;28;20029;-87
2023/04/18 05:50:43;;;;;;;19.57;11.00;;;;;;;4.92;80.37;102527.03;5052802;28;20024;-87
2023/04/18 05:53:08;;;;;;;19.85;11.30;;;;;;;4.93;79.73;102523.63;5052604;28;20020;-86
2023/04/18 05:55:34;;;;;;;21.30;10.98;;;;;;;5.03;80.12;102534.25;5053200;28;20484;-92
2023/04/18 05:57:59;;;;;;;21.00;11.40;;;;;;;4.96;79.99;102517.72;5050483;28;20443;-91
2023/04/18 06:00:24;;;;;;;20.60;11.30;;;;;;;5.07;79.69;102533.53;5053935;28;20017;-92
2023/04/18 06:02:50;;;;;;;20.83;11.50;;;;;;;5.10;79.75;102525.94;5054217;28;20034;-92
2023/04/18 06:05:15;;;;;;;20.73;11.50;;;;;;;5.23;79.38;102545.25;5054130;28;20091;-92
2023/04/18 06:07:41;;;;;;;19.73;10.30;;;;;;;5.28;79.31;102542.81;5052117;28;20025;-86
2023/04/18 06:10:09;;;;;;;19.65;10.95;;;;;;;5.32;79.80;102542.97;5052946;28;20056;-86
2023/04/18 06:12:35;;;;;;;20.75;11.10;;;;;;;5.33;79.48;102531.84;5052505;28;20017;-86
2023/04/18 06:15:00;;;;;;;20.90;11.50;;;;;;;5.34;79.42;102537.91;5063495;28;20032;-85
2023/04/18 06:17:26;;;;;;;21.23;12.10;;;;;;;5.37;79.90;102546.59;5072641;28;20469;-86
2023/04/18 06:19:51;;;;;;;22.95;11.93;;;;;;;5.43;79.78;102543.34;5072949;28;20431;-86
2023/04/18 06:22:16;;;;;;;20.98;11.77;;;;;;;5.52;79.60;102540.19;5067649;28;20014;-85
2023/04/18 06:24:41;;;;;;;20.43;11.60;;;;;;;5.62;79.49;102549.09;5052458;28;20432;-84
2023/04/18 06:27:07;;;;;;;21.23;12.00;;;;;;;5.67;79.23;102547.56;5052325;28;20029;-86
2023/04/18 06:29:32;;;;;;;20.70;11.50;;;;;;;5.71;80.08;102547.72;5051881;28;20051;-86
2023/04/18 06:31:58;;;;;;;22.35;12.07;;;;;;;5.78;80.00;102563.34;5052446;28;20534;-85
2023/04/18 06:34:23;;;;;;;22.00;12.38;;;;;;;5.80;79.75;102557.41;5052216;28;20426;-86
2023/04/18 06:36:49;;;;;;;22.00;12.13;;;;;;;5.88;79.86;102555.09;5052600;28;20040;-85
2023/04/18 06:39:14;;;;;;;21.30;11.43;;;;;;;6.00;80.56;102558.09;5052943;28;20478;-87
2023/04/18 06:41:39;;;;;;;19.35;11.05;;;;;;;6.10;79.73;102550.63;5052193;28;20029;-87
2023/04/18 06:44:05;;;;;;;20.67;11.50;;;;;;;6.22;79.49;102550.16;5051716;28;20032;-87
2023/04/18 06:46:31;;;;;;;19.35;10.93;;;;;;;6.32;79.00;102558.19;5052328;28;20025;-86
2023/04/18 06:48:56;;;;;;;21.95;11.77;;;;;;;6.36;79.12;102553.13;5052268;28;20485;-83
2023/04/18 06:51:22;;;;;;;20.47;10.90;;;;;;;6.34;79.01;102564.28;5051555;28;20048;-85
2023/04/18 06:53:47;;;;;;;21.67;10.70;;;;;;;6.36;79.00;102558.28;5051886;28;20396;-83
2023/04/18 06:56:12;;;;;;;20.35;11.02;;;;;;;6.34;78.90;102563.41;5051618;28;20485;-83
2023/04/18 06:58:41;;;;;;;19.77;10.82;;;;;;;6.41;79.19;102572.22;5051659;28;20021;-84
2023/04/18 07:01:07;;;;;;;19.80;11.07;;;;;;;6.39;78.97;102553.22;5052198;28;20168;-84
2023/04/18 07:03:32;;;;;;;20.60;11.20;;;;;;;6.44;78.81;102565.44;5051086;28;20045;-84
2023/04/18 07:05:58;;;;;;;19.40;10.27;;;;;;;6.53;79.45;102564.81;5053862;28;20374;-84
2023/04/18 07:08:23;;;;;;;20.35;11.25;;;;;;;6.85;78.07;102575.19;5055418;28;20082;-84
2023/04/18 07:10:48;;;;;;;19.85;10.48;;;;;;;7.73;74.52;102561.97;5055304;28;20104;-84
2023/04/18 07:13:13;;;;;;;19.80;10.57;;;;;;;8.16;72.79;102569.84;5055990;28;20029;-85
2023/04/18 07:15:39;;;;;;;19.37;9.93;;;;;;;7.84;73.21;102570.00;5055529;28;20048;-85
2023/04/18 07:18:04;;;;;;;20.58;10.38;;;;;;;7.47;74.37;102571.66;5054670;28;20033;-84
2023/04/18 07:20:30;;;;;;;19.30;10.40;;;;;;;7.33;76.34;102571.31;5054846;28;20025;-84
2023/04/18 07:22:55;;;;;;;18.70;10.33;;;;;;;7.22;76.99;102563.25;5055655;28;20546;-84
2023/04/18 07:25:20;;;;;;;18.15;10.13;;;;;;;7.22;77.51;102567.56;5054618;28;20095;-84
2023/04/18 07:27:46;;;;;;;19.40;10.70;;;;;;;6.89;77.80;102573.56;5055229;28;20025;-84
2023/04/18 07:30:12;;;;;;;19.60;10.53;;;;;;;6.84;78.15;102570.88;5055627;28;20024;-84
2023/04/18 07:32:37;;;;;;;19.63;9.80;;;;;;;6.89;78.50;102579.59;5054347;28;20021;-84
2023/04/18 07:35:03;;;;;;;18.37;10.20;;;;;;;6.92;78.84;102571.94;5055591;28;20028;-85
2023/04/18 07:37:28;;;;;;;19.40;9.93;;;;;;;7.03;78.72;102590.31;5055523;28;20595;-84
2023/04/18 07:39:54;;;;;;;19.40;10.57;;;;;;;7.03;78.69;102587.75;5054488;28;20075;-84
2023/04/18 07:42:31;;;;;;;19.73;10.13;;;;;;;7.07;78.92;102580.94;5054775;28;20025;-84
2023/04/18 07:44:57;;;;;;;18.83;10.20;;;;;;;7.08;78.77;102580.97;5055342;28;20021;-83
2023/04/18 07:47:23;;;;;;;19.40;9.93;;;;;;;7.16;78.41;102588.03;5054791;28;20029;-83
2023/04/18 07:49:48;;;;;;;18.60;10.23;;;;;;;7.14;78.82;102588.03;5055440;28;20415;-85
2023/04/18 07:52:14;;;;;;;17.60;9.53;;;;;;;7.20;78.94;102595.06;5054911;28;20047;-82
2023/04/18 07:54:39;;;;;;;18.90;9.87;;;;;;;7.22;79.16;102585.66;5054104;28;20021;-82
2023/04/18 07:57:04;;;;;;;19.60;10.10;;;;;;;7.22;78.63;102586.50;5055225;28;20060;-82
2023/04/18 07:59:31;;;;;;;19.20;10.27;;;;;;;7.41;78.84;102589.59;5054628;28;20417;-82
2023/04/18 08:01:56;;;;;;;19.70;10.55;;;;;;;7.40;78.41;102599.03;5054673;28;20040;-84
2023/04/18 08:04:42;;;;;;;20.08;10.30;;;;;;;7.49;78.25;102601.00;5054671;28;20465;-85
2023/04/18 08:07:09;;;;;;;18.63;9.90;;;;;;;7.48;78.34;102594.06;5053390;28;20440;-84
2023/04/18 08:09:35;;;;;;;18.58;9.95;;;;;;;7.53;78.42;102587.34;5054476;28;20488;-84
2023/04/18 08:12:01;;;;;;;19.00;10.07;;;;;;;7.68;78.98;102598.88;5054708;28;20029;-84
2023/04/18 08:14:26;;;;;;;19.13;10.17;;;;;;;7.77;77.85;102604.25;5053650;28;20029;-84
2023/04/18 08:16:51;;;;;;;19.40;10.10;;;;;;;7.80;77.77;102595.72;5054621;28;20271;-83
2023/04/18 08:19:17;;;;;;;19.30;9.90;;;;;;;7.97;76.98;102602.16;5054692;28;20029;-83
2023/04/18 08:21:42;;;;;;;18.83;9.93;;;;;;;7.81;77.17;102600.94;5052890;28;20021;-82
2023/04/18 08:24:07;;;;;;;17.87;9.77;;;;;;;7.81;78.32;102595.75;5054485;28;20405;-85
2023/04/18 08:26:32;;;;;;;19.47;9.93;;;;;;;7.95;78.33;102598.66;5053953;28;20215;-84
2023/04/18 08:28:58;;;;;;;17.67;9.73;;;;;;;7.89;77.29;102596.81;5053682;28;20040;-84
2023/04/18 08:31:23;;;;;;;18.67;9.83;;;;;;;7.84;78.22;102598.41;5054543;28;20211;-83
2023/04/18 08:33:48;;;;;;;18.53;9.87;;;;;;;7.84;77.92;102603.59;5054140;28;20037;-84
2023/04/18 08:36:14;;;;;;;17.63;10.03;;;;;;;7.87;78.13;102606.25;5063933;28;20115;-84
2023/04/18 08:38:39;;;;;;;18.40;10.03;;;;;;;7.94;77.65;102593.47;5073972;28;20039;-82
2023/04/18 08:41:04;;;;;;;17.87;9.97;;;;;;;7.99;77.96;102595.31;5073801;28;20404;-85
2023/04/18 08:43:30;;;;;;;17.30;9.17;;;;;;;8.15;78.26;102596.56;5073147;28;20392;-85
2023/04/18 08:46:01;;;;;;;18.17;9.40;;;;;;;8.28;77.08;102596.84;5074089;28;20108;-84
2023/04/18 08:48:27;;;;;;;17.85;9.73;;;;;;;8.36;76.20;102605.63;5073935;28;20032;-85
2023/04/18 08:50:58;;;;;;;17.47;9.60;;;;;;;8.44;76.36;102595.47;5073058;28;20067;-85
2023/04/18 08:53:25;;;;;;;17.20;9.10;;;;;;;8.58;76.16;102588.91;5073875;28;20019;-85
2023/04/18 08:55:56;;;;;;;;;;;;;;;8.73;75.11;102593.53;5073529;28;20028;-85
2023/04/18 08:58:23;;;;;;;17.45;9.38;;;;;;;8.95;76.00;102583.59;5073120;28;19920;-85
2023/04/18 09:00:49;;;;;;;18.25;10.10;;;;;;;8.86;73.89;102579.09;5073953;28;20024;-85
2023/04/18 09:03:15;;;;;;;18.30;10.02;;;;;;;8.93;74.38;102578.41;5073313;28;20032;-85
2023/04/18 09:05:40;;;;;;;18.10;10.40;;;;;;;9.03;72.33;102569.06;5073603;28;20021;-85
2023/04/18 09:08:23;;;;;;;18.53;10.43;;;;;;;9.35;72.53;102580.88;5073880;28;20126;-84
2023/04/18 09:10:49;;;;;;;18.88;9.85;;;;;;;9.67;69.68;102577.94;5072613;28;20021;-84
2023/04/18 09:13:38;;;;;;;17.55;9.77;;;;;;;9.95;68.92;102571.47;5073619;28;20020;-84
2023/04/18 09:16:05;;;;;;;17.98;9.75;;;;;;;10.03;69.50;102571.59;5073497;28;20027;-84
2023/04/18 09:18:31;;;;;;;;;;;;;;;9.74;68.92;102584.97;5068677;28;20032;-84
2023/04/18 09:21:16;;;;;;;18.05;9.45;;;;;;;9.40;70.05;102579.25;5053306;28;19917;-84
2023/04/18 09:23:41;;;;;;;17.80;9.00;;;;;;;9.37;70.05;102574.88;5052977;28;20378;-84
2023/04/18 09:26:06;;;;;;;17.13;9.40;;;;;;;9.37;70.30;102569.69;5052223;28;20139;-84
2023/04/18 09:28:32;;;;;;;16.77;8.90;;;;;;;9.55;70.18;102573.44;5051980;28;20021;-84
2023/04/18 09:31:08;;;;;;;17.47;8.50;;;;;;;9.68;70.07;102577.09;5052664;28;20035;-85
2023/04/18 09:33:35;;;;;;;15.95;8.02;;;;;;;10.07;69.06;102581.19;5052925;28;20469;-84
2023/04/18 09:36:20;;;;;;;16.52;8.88;;;;;;;10.17;66.32;102571.78;5053401;28;20108;-84
2023/04/18 09:38:50;;;;;;;15.85;8.13;;;;;;;10.33;67.13;102572.88;5052468;28;20471;-84
2023/04/18 09:41:16;;;;;;;15.30;8.00;;;;;;;10.33;65.10;102565.09;5052859;28;20025;-84
2023/04/18 09:43:42;;;;;;;16.30;7.40;;;;;;;10.34;64.42;102572.03;5052632;28;20052;-84
2023/04/18 09:46:08;;;;;;;13.82;7.45;;;;;;;10.00;64.78;102564.66;5052529;28;20279;-84
2023/04/18 09:48:34;;;;;;;13.65;7.30;;;;;;;9.95;66.46;102563.69;5056243;28;20055;-83
2023/04/18 09:51:11;;;;;;;12.20;6.93;;;;;;;10.00;64.90;102562.06;5072242;28;20103;-84
2023/04/18 09:53:38;;;;;;;;;;;;;;;10.07;66.69;102577.69;5072406;28;20020;-77
2023/04/18 09:56:17;;;;;;;14.43;7.53;;;;;;;9.92;67.19;102562.78;5072720;28;19913;-83
2023/04/18 09:58:46;;;;;;;14.75;7.80;;;;;;;9.56;68.12;102565.69;5072767;28;20025;-83
2023/04/18 10:01:12;;;;;;;15.52;7.80;;;;;;;9.48;68.53;102559.50;5072113;28;20027;-83
2023/04/18 10:03:45;;;;;;;16.07;7.77;;;;;;;9.51;68.48;102567.34;5072479;28;20029;-83
2023/04/18 10:06:15;;;;;;;16.65;8.10;;;;;;;9.52;68.63;102569.06;5072118;28;20035;-83
2023/04/18 10:08:45;;;;;;;13.90;7.63;;;;;;;9.62;69.12;102564.91;5072368;28;20492;-83
2023/04/18 10:11:10;;;;;;;14.65;7.68;;;;;;;9.58;68.91;102553.63;5069244;28;20544;-84
2023/04/18 10:13:40;;;;;;;13.40;7.10;;;;;;;9.49;67.89;102563.84;5071351;28;20111;-83
2023/04/18 10:16:06;;;;;;;12.77;6.72;;;;;;;9.36;68.03;102565.34;5072873;28;20085;-84
2023/04/18 10:18:31;;;;;;;14.07;6.77;;;;;;;9.52;68.34;102573.38;5072297;28;20020;-84
2023/04/18 10:21:04;;;;;;;13.20;6.93;;;;;;;9.49;68.73;102574.22;5070559;28;20107;-84
2023/04/18 10:23:39;;;;;;;11.55;6.70;;;;;;;9.68;67.44;102577.09;5071923;28;20051;-83
2023/04/18 10:26:06;;;;;;;10.40;5.82;;;;;;;9.85;65.91;102577.38;5072646;28;20029;-84
2023/04/18 10:28:55;;;;;;;8.50;5.00;;;;;;;9.78;64.16;102580.72;5071703;28;20066;-87
2023/04/18 10:31:22;;;;;;;9.13;5.10;;;;;;;9.72;63.91;102584.09;5072228;28;20024;-83
2023/04/18 10:33:50;;;;;;;8.73;5.10;;;;;;;9.78;64.35;102575.53;5072459;28;20039;-83
2023/04/18 10:36:19;;;;;;;9.63;5.22;;;;;;;9.84;63.68;102578.22;5072031;28;20099;-83
2023/04/18 10:38:48;;;;;;;9.02;4.78;;;;;;;10.00;64.34;102579.31;5072419;28;20543;-84
2023/04/18 10:41:15;;;;;;;11.10;5.70;;;;;;;9.96;64.07;102586.19;5076521;28;20032;-83
2023/04/18 10:43:59;;;;;;;;;;;;;;;10.00;65.09;102590.59;5076228;28;20110;-83
2023/04/18 10:46:24;;;;;;;11.70;6.00;;;;;;;9.90;65.31;102578.34;5076260;28;19916;-83
2023/04/18 10:49:13;;;;;;;11.80;6.33;;;;;;;9.70;65.49;102578.00;5075335;28;20155;-83
2023/04/18 10:51:39;;;;;;;12.45;6.45;;;;;;;9.60;66.66;102568.34;5055655;28;20035;-83
2023/04/18 10:54:08;;;;;;;12.23;6.47;;;;;;;9.75;67.77;102576.34;5056418;28;20115;-83
2023/04/18 10:56:33;;;;;;;13.57;6.90;;;;;;;9.72;66.41;102577.19;5055296;28;20044;-83
2023/04/18 10:59:06;;;;;;;12.50;6.60;;;;;;;9.69;67.28;102569.34;5056146;28;20025;-83
2023/04/18 11:01:36;;;;;;;11.98;6.80;;;;;;;9.74;66.81;102570.31;5055922;28;20127;-83
2023/04/18 11:04:10;;;;;;;13.98;6.80;;;;;;;9.72;67.25;102571.13;5055237;28;20036;-83
2023/04/18 11:07:03;;;;;;;14.55;7.03;;;;;;;9.79;67.82;102577.28;5055927;28;20028;-84
2023/04/18 11:09:28;;;;;;;13.25;6.80;;;;;;;9.85;67.75;102562.69;5060301;28;20035;-82
2023/04/18 11:12:09;;;;;;;15.57;7.73;;;;;;;9.86;66.79;102574.78;5074987;28;20025;-82
2023/04/18 11:14:48;;;;;;;15.93;8.45;;;;;;;9.75;66.35;102568.56;5075563;28;20039;-82
2023/04/18 11:17:19;;;;;;;16.13;8.45;;;;;;;9.73;66.94;102571.16;5075245;28;20027;-82
2023/04/18 11:19:47;;;;;;;15.88;8.40;;;;;;;9.68;67.66;102574.50;5063609;28;20078;-82